Time;durP1;ratioP1;P1;durP2;ratioP2;P2;SDS_P1;SDS_P2;PMS_P1;PMS_P2;Temp;Humidity;BMP_temperature;BMP_pressure;BME280_temperature;BME280_humidity;BME280_pressure;Samples;Min_cycle;Max_cycle;Signal;HPM_P1;HPM_P2
2023/01/22 00:01:13;;;;;;;99.97;27.40;;;;;;;-1.26;100.00;103328.41;5245661;28;20126;-74
2023/01/22 00:03:44;;;;;;;88.25;25.83;;;;;;;-1.33;100.00;103331.16;5258830;28;20020;-74
2023/01/22 00:06:15;;;;;;;96.63;26.45;;;;;;;-1.27;100.00;103339.84;5256797;28;20031;-74
2023/01/22 00:08:49;;;;;;;91.68;26.15;;;;;;;-1.28;100.00;103341.59;5261175;28;20032;-74
2023/01/22 00:11:20;;;;;;;105.55;26.15;;;;;;;-1.34;100.00;103339.97;5245676;28;20484;-74
2023/01/22 00:13:50;;;;;;;101.97;29.15;;;;;;;-1.39;100.00;103344.44;5245352;28;20030;-74
2023/01/22 00:16:21;;;;;;;99.38;28.20;;;;;;;-1.40;100.00;103345.34;5259774;28;20028;-74
2023/01/22 00:18:51;;;;;;;90.40;26.13;;;;;;;-1.38;100.00;103346.19;5245303;28;20107;-74
2023/01/22 00:21:21;;;;;;;90.80;27.60;;;;;;;-1.37;100.00;103340.00;5245227;28;20577;-74
2023/01/22 00:23:52;;;;;;;104.80;28.20;;;;;;;-1.39;100.00;103339.19;5245422;28;20051;-74
2023/01/22 00:26:23;;;;;;;103.10;27.80;;;;;;;-1.40;100.00;103336.59;5245262;28;20028;-74
2023/01/22 00:28:53;;;;;;;87.55;26.98;;;;;;;-1.36;100.00;103338.25;5245477;28;20469;-74
2023/01/22 00:31:24;;;;;;;92.72;26.10;;;;;;;-1.35;100.00;103332.97;5249047;28;20027;-74
2023/01/22 00:33:55;;;;;;;105.55;28.35;;;;;;;-1.35;100.00;103332.97;5253372;28;20090;-74
2023/01/22 00:36:25;;;;;;;101.50;27.65;;;;;;;-1.35;100.00;103326.84;5245145;28;20024;-74
2023/01/22 00:38:56;;;;;;;91.55;27.38;;;;;;;-1.37;100.00;103324.22;5258303;28;20028;-74
2023/01/22 00:41:26;;;;;;;94.43;27.58;;;;;;;-1.43;100.00;103326.97;5259022;28;20094;-74
2023/01/22 00:43:57;;;;;;;107.03;28.98;;;;;;;-1.49;100.00;103323.59;5244815;28;20084;-74
2023/01/22 00:46:27;;;;;;;103.00;27.55;;;;;;;-1.48;100.00;103318.28;5244860;28;20477;-74
2023/01/22 00:48:58;;;;;;;104.18;28.65;;;;;;;-1.53;100.00;103312.22;5244932;28;20051;-75
2023/01/22 00:51:29;;;;;;;105.78;29.52;;;;;;;-1.59;100.00;103314.97;5243761;28;20024;-75
2023/01/22 00:53:59;;;;;;;98.85;26.83;;;;;;;-1.60;100.00;103322.00;5244796;28;20021;-74
2023/01/22 00:56:30;;;;;;;92.90;26.65;;;;;;;-1.54;100.00;103326.28;5244900;28;20024;-74
2023/01/22 00:59:00;;;;;;;94.55;27.00;;;;;;;-1.57;100.00;103329.84;5248593;28;20055;-74
2023/01/22 01:01:31;;;;;;;108.28;28.38;;;;;;;-1.52;100.00;103329.75;5254615;28;20024;-74
2023/01/22 01:04:01;;;;;;;110.13;28.20;;;;;;;-1.55;100.00;103328.97;5263036;28;20116;-74
2023/01/22 01:06:32;;;;;;;106.07;27.80;;;;;;;-1.56;100.00;103338.59;5253831;28;20516;-74
2023/01/22 01:09:04;;;;;;;111.05;29.33;;;;;;;-1.59;100.00;103334.28;5255515;28;20051;-74
2023/01/22 01:11:34;;;;;;;103.43;30.23;;;;;;;-1.60;100.00;103327.28;5265471;28;20024;-74
2023/01/22 01:14:05;;;;;;;93.90;28.83;;;;;;;-1.58;100.00;103322.84;5245854;28;20032;-74
2023/01/22 01:16:35;;;;;;;112.20;30.15;;;;;;;-1.59;100.00;103315.84;5260788;28;20032;-74
2023/01/22 01:19:08;;;;;;;101.80;27.75;;;;;;;-1.57;100.00;103314.03;5244336;28;20070;-74
2023/01/22 01:21:39;;;;;;;108.72;28.42;;;;;;;-1.58;100.00;103312.31;5244803;28;20027;-74
2023/01/22 01:24:10;;;;;;;94.47;26.50;;;;;;;-1.50;100.00;103313.97;5246994;28;20028;-74
2023/01/22 01:26:41;;;;;;;104.10;27.45;;;;;;;-1.53;100.00;103316.63;5248938;28;20052;-74
2023/01/22 01:29:11;;;;;;;101.50;29.20;;;;;;;-1.53;100.00;103309.59;5249289;28;20511;-74
2023/01/22 01:31:41;;;;;;;101.18;27.05;;;;;;;-1.53;100.00;103306.97;5255522;28;20491;-75
2023/01/22 01:34:12;;;;;;;98.38;27.88;;;;;;;-1.52;100.00;103305.19;5268656;28;20020;-74
2023/01/22 01:36:43;;;;;;;103.07;28.30;;;;;;;-1.48;100.00;103296.34;5248958;28;20695;-74
2023/01/22 01:39:13;;;;;;;94.82;26.85;;;;;;;-1.40;100.00;103292.69;5250841;28;20505;-74
2023/01/22 01:41:44;;;;;;;94.70;27.25;;;;;;;-1.37;100.00;103297.00;5260513;28;20028;-75
2023/01/22 01:44:17;;;;;;;107.28;30.10;;;;;;;-1.41;100.00;103296.19;5248305;28;20017;-74
2023/01/22 01:47:04;;;;;;;102.85;28.88;;;;;;;-1.32;100.00;103295.16;5248448;28;20039;-74
2023/01/22 01:49:46;;;;;;;96.80;28.40;;;;;;;-1.33;100.00;103285.53;5248698;28;20028;-75
2023/01/22 01:52:17;;;;;;;99.03;28.65;;;;;;;-1.32;100.00;103287.25;5248606;28;20405;-74
2023/01/22 01:54:51;;;;;;;109.07;29.48;;;;;;;-1.33;100.00;103283.75;5248330;28;20028;-74
2023/01/22 01:57:28;;;;;;;105.97;29.73;;;;;;;-1.26;100.00;103286.25;5251047;28;20043;-74
2023/01/22 02:00:03;;;;;;;108.13;29.38;;;;;;;-1.27;100.00;103280.13;5268075;28;20016;-74
2023/01/22 02:02:33;;;;;;;106.93;27.13;;;;;;;-1.21;100.00;103284.41;5256367;28;20027;-74
2023/01/22 02:05:05;;;;;;;99.03;29.85;;;;;;;-1.20;100.00;103270.34;5254530;28;20012;-74
2023/01/22 02:07:36;;;;;;;107.95;30.02;;;;;;;-1.18;100.00;103277.31;5248210;28;20056;-75
2023/01/22 02:10:07;;;;;;;106.18;28.65;;;;;;;-1.21;100.00;103271.22;5247941;28;20036;-74
2023/01/22 02:12:37;;;;;;;89.65;28.00;;;;;;;-1.14;100.00;103272.84;5248142;28;20373;-74
2023/01/22 02:15:09;;;;;;;91.95;27.95;;;;;;;-1.12;100.00;103265.78;5250119;28;20021;-74
2023/01/22 02:17:39;;;;;;;97.97;29.75;;;;;;;-1.12;100.00;103265.78;5247469;28;20115;-74
2023/01/22 02:20:10;;;;;;;93.57;28.17;;;;;;;-1.12;100.00;103257.88;5247698;28;20150;-75
2023/01/22 02:22:41;;;;;;;94.72;27.83;;;;;;;-1.10;100.00;103242.91;5248104;28;20024;-74
2023/01/22 02:25:11;;;;;;;92.40;26.23;;;;;;;-1.07;100.00;103250.75;5247971;28;20020;-74
2023/01/22 02:27:42;;;;;;;99.35;27.40;;;;;;;-1.11;100.00;103256.97;5247354;28;20036;-74
2023/01/22 02:30:13;;;;;;;105.38;30.13;;;;;;;-1.08;100.00;103251.66;5247513;28;20029;-74
2023/01/22 02:32:43;;;;;;;99.45;29.23;;;;;;;-1.10;100.00;103267.50;5247633;28;20087;-74
2023/01/22 02:35:14;;;;;;;106.07;31.75;;;;;;;-1.03;100.00;103267.38;5246284;28;20137;-74
2023/01/22 02:37:44;;;;;;;107.00;30.05;;;;;;;-1.07;100.00;103263.91;5247565;28;20055;-74
2023/01/22 02:40:15;;;;;;;93.57;29.33;;;;;;;-1.07;100.00;103263.91;5247272;28;20407;-74
2023/01/22 02:42:45;;;;;;;101.05;30.33;;;;;;;-1.09;100.00;103257.81;5247301;28;20039;-74
2023/01/22 02:45:16;;;;;;;104.43;29.90;;;;;;;-1.07;100.00;103258.66;5247574;28;20101;-74
2023/01/22 02:47:46;;;;;;;97.95;28.92;;;;;;;-1.08;100.00;103254.28;5266541;28;20130;-74
2023/01/22 02:50:17;;;;;;;101.93;29.85;;;;;;;-1.06;100.00;103258.59;5254224;28;20028;-74
2023/01/22 02:52:48;;;;;;;92.10;29.42;;;;;;;-1.03;100.00;103257.69;5247136;28;20036;-75
2023/01/22 02:55:18;;;;;;;92.95;29.25;;;;;;;-0.98;100.00;103249.69;5245708;28;20111;-75
2023/01/22 02:57:49;;;;;;;98.63;29.48;;;;;;;-0.96;100.00;103255.78;5253927;28;20060;-74
2023/01/22 03:00:19;;;;;;;93.90;27.73;;;;;;;-0.99;100.00;103242.69;5265364;28;20024;-74
2023/01/22 03:02:50;;;;;;;106.13;29.65;;;;;;;-1.00;100.00;103241.81;5247263;28;20024;-74
2023/01/22 03:05:20;;;;;;;100.40;28.55;;;;;;;-1.01;100.00;103236.56;5246913;28;20036;-74
2023/01/22 03:07:51;;;;;;;96.25;28.58;;;;;;;-1.01;100.00;103240.06;5246891;28;20495;-74
2023/01/22 03:10:21;;;;;;;102.63;29.33;;;;;;;-0.99;100.00;103232.16;5246608;28;20059;-75
2023/01/22 03:21:21;;;;;;;94.75;29.23;;;;;;;-1.04;100.00;103221.72;5246466;28;20435;-74
2023/01/22 03:23:53;;;;;;;95.25;28.23;;;;;;;-1.09;100.00;103224.44;5246656;28;20508;-74
2023/01/22 03:26:27;;;;;;;87.38;26.95;;;;;;;-1.08;100.00;103225.31;5245711;28;20037;-75
2023/01/22 03:28:58;;;;;;;89.43;27.50;;;;;;;-1.17;100.00;103213.19;5246351;28;20031;-74
2023/01/22 03:31:28;;;;;;;94.63;28.00;;;;;;;-1.22;100.00;103214.19;5246089;28;20024;-74
2023/01/22 03:33:59;;;;;;;99.72;28.33;;;;;;;-1.22;100.00;103187.84;5246360;28;20039;-74
2023/01/22 03:36:29;;;;;;;94.15;29.45;;;;;;;-1.20;100.00;103188.69;5245952;28;20444;-75
2023/01/22 03:39:00;;;;;;;92.00;27.98;;;;;;;-1.25;100.00;103191.44;5246463;28;20028;-74
2023/01/22 03:41:30;;;;;;;91.25;28.95;;;;;;;-1.34;100.00;103202.16;5246208;28;20036;-74
2023/01/22 03:44:02;;;;;;;89.28;28.27;;;;;;;-1.42;100.00;103201.44;5246141;28;20104;-74
2023/01/22 03:46:33;;;;;;;93.65;27.30;;;;;;;-1.51;100.00;103213.00;5245667;28;20024;-74
2023/01/22 03:49:04;;;;;;;85.65;26.67;;;;;;;-1.63;100.00;103200.09;5246230;28;20103;-75
2023/01/22 03:51:35;;;;;;;91.15;28.55;;;;;;;-1.60;100.00;103194.78;5245969;28;20107;-74
2023/01/22 03:54:06;;;;;;;102.65;28.35;;;;;;;-1.59;100.00;103202.66;5246363;28;20048;-74
2023/01/22 03:56:36;;;;;;;94.82;28.35;;;;;;;-1.71;100.00;103205.50;5247674;28;20105;-74
2023/01/22 03:59:09;;;;;;;96.30;28.20;;;;;;;-1.87;100.00;103214.59;5252769;28;20441;-74
2023/01/22 04:01:39;;;;;;;89.18;28.35;;;;;;;-2.00;100.00;103208.72;5254704;28;20070;-74
2023/01/22 04:04:10;;;;;;;93.15;27.70;;;;;;;-1.97;100.00;103207.78;5259686;28;20025;-75
2023/01/22 04:06:40;;;;;;;96.13;29.83;;;;;;;-2.01;100.00;103206.94;5246042;28;20040;-74
2023/01/22 04:09:11;;;;;;;89.28;27.98;;;;;;;-2.05;100.00;103201.81;5246426;28;20029;-74
2023/01/22 04:11:42;;;;;;;103.75;29.17;;;;;;;-2.10;100.00;103202.75;5245833;28;20062;-74
2023/01/22 04:14:12;;;;;;;97.15;30.40;;;;;;;-2.13;100.00;103208.03;5245747;28;20025;-74
2023/01/22 04:16:43;;;;;;;111.68;31.33;;;;;;;-2.17;100.00;103214.25;5247693;28;20016;-74
2023/01/22 04:19:13;;;;;;;106.57;32.17;;;;;;;-2.03;100.00;103208.75;5246111;28;20016;-75
2023/01/22 04:21:45;;;;;;;108.32;30.80;;;;;;;-1.89;100.00;103204.13;5250239;28;20027;-74
2023/01/22 04:24:16;;;;;;;110.20;30.23;;;;;;;-1.79;100.00;103207.44;5253327;28;20024;-73
2023/01/22 04:26:46;;;;;;;108.22;32.20;;;;;;;-1.73;100.00;103207.31;5244988;28;20036;-74
2023/01/22 04:29:18;;;;;;;106.03;32.20;;;;;;;-1.68;100.00;103205.47;5245717;28;20024;-74
2023/01/22 04:31:49;;;;;;;97.47;31.23;;;;;;;-1.64;100.00;103198.38;5245210;28;20109;-74
2023/01/22 04:34:19;;;;;;;108.35;30.98;;;;;;;-1.60;100.00;103198.28;5246817;28;20103;-74
2023/01/22 04:36:50;;;;;;;110.35;31.50;;;;;;;-1.44;100.00;103196.22;5257213;28;20020;-74
2023/01/22 04:39:20;;;;;;;112.88;31.38;;;;;;;-1.36;100.00;103196.03;5246603;28;20751;-75
2023/01/22 04:41:51;;;;;;;104.35;31.45;;;;;;;-1.32;100.00;103195.94;5256241;28;20039;-74
2023/01/22 04:44:21;;;;;;;95.70;28.20;;;;;;;-1.32;100.00;103200.34;5245192;28;20020;-74
2023/01/22 04:46:52;;;;;;;98.03;29.67;;;;;;;-1.30;100.00;103206.47;5243925;28;20056;-74
2023/01/22 04:49:23;;;;;;;94.97;29.60;;;;;;;-1.33;100.00;103199.47;5244998;28;20035;-74
2023/01/22 04:51:55;;;;;;;89.25;28.83;;;;;;;-1.37;100.00;103200.44;5244879;28;20028;-75
2023/01/22 04:54:25;;;;;;;97.60;30.05;;;;;;;-1.36;100.00;103193.41;5244745;28;20036;-74
2023/01/22 04:56:56;;;;;;;91.65;31.00;;;;;;;-1.33;100.00;103182.81;5244833;28;20103;-74
2023/01/22 04:59:26;;;;;;;83.50;27.73;;;;;;;-1.23;100.00;103192.25;5264152;28;20023;-74
2023/01/22 05:01:57;;;;;;;87.53;28.08;;;;;;;-1.26;100.00;103192.31;5251731;28;20051;-74
2023/01/22 05:04:27;;;;;;;89.90;29.27;;;;;;;-1.24;100.00;103192.28;5256373;28;20408;-75
2023/01/22 05:06:58;;;;;;;95.93;26.92;;;;;;;-1.23;100.00;103194.03;5244545;28;20473;-74
2023/01/22 05:09:28;;;;;;;79.47;27.73;;;;;;;-1.28;100.00;103198.53;5244988;28;20058;-75
2023/01/22 05:11:59;;;;;;;70.15;26.90;;;;;;;-1.31;100.00;103184.53;5244683;28;20024;-74
2023/01/22 05:14:29;;;;;;;78.97;26.42;;;;;;;-1.31;100.00;103194.16;5245261;28;20032;-74
2023/01/22 05:17:00;;;;;;;85.47;26.40;;;;;;;-1.34;100.00;103197.75;5250075;28;20059;-74
2023/01/22 05:19:30;;;;;;;75.05;25.27;;;;;;;-1.35;100.00;103203.06;5253072;28;20055;-74
2023/01/22 05:22:01;;;;;;;78.05;26.13;;;;;;;-1.33;100.00;103204.75;5258053;28;20047;-74
2023/01/22 05:24:31;;;;;;;78.38;28.08;;;;;;;-1.31;100.00;103210.88;5244641;28;20016;-74
2023/01/22 05:27:02;;;;;;;74.93;27.23;;;;;;;-1.30;100.00;103214.38;5243227;28;20111;-74
2023/01/22 05:29:32;;;;;;;71.45;24.90;;;;;;;-1.30;100.00;103211.72;5244001;28;20060;-75
2023/01/22 05:32:03;;;;;;;67.35;23.58;;;;;;;-1.30;100.00;103217.00;5244706;28;20123;-74
2023/01/22 05:34:34;;;;;;;72.47;24.25;;;;;;;-1.27;100.00;103210.78;5246587;28;20020;-75
2023/01/22 05:37:04;;;;;;;68.57;22.80;;;;;;;-1.27;100.00;103208.16;5253532;28;20028;-75
2023/01/22 05:39:34;;;;;;;62.60;23.70;;;;;;;-1.31;100.00;103204.69;5249003;28;20024;-75
2023/01/22 05:42:05;;;;;;;63.75;24.00;;;;;;;-1.38;100.00;103195.22;5265655;28;20111;-75
2023/01/22 05:44:35;;;;;;;69.35;23.50;;;;;;;-1.49;100.00;103195.44;5259723;28;20392;-74
2023/01/22 05:47:06;;;;;;;61.03;22.73;;;;;;;-1.57;100.00;103199.97;5256296;28;20048;-74
2023/01/22 05:49:36;;;;;;;55.28;21.33;;;;;;;-1.67;100.00;103201.06;5244757;28;20020;-75
2023/01/22 05:52:10;;;;;;;72.03;23.65;;;;;;;-1.75;100.00;103201.22;5244324;28;20515;-75
2023/01/22 05:54:41;;;;;;;69.43;24.33;;;;;;;-1.77;100.00;103200.38;5244490;28;20128;-74
2023/01/22 05:57:11;;;;;;;63.50;23.17;;;;;;;-1.74;100.00;103202.09;5244648;28;20095;-75
2023/01/22 05:59:42;;;;;;;64.40;22.55;;;;;;;-1.70;100.00;103209.03;5264826;28;20110;-75
2023/01/22 06:02:12;;;;;;;73.50;23.55;;;;;;;-1.61;100.00;103203.56;5248159;28;20021;-75
2023/01/22 06:04:43;;;;;;;65.07;23.83;;;;;;;-1.58;100.00;103207.00;5244170;28;20052;-74
2023/01/22 06:07:13;;;;;;;64.10;24.88;;;;;;;-1.55;100.00;103208.72;5248148;28;20472;-75
2023/01/22 06:09:44;;;;;;;61.70;22.02;;;;;;;-1.51;100.00;103213.00;5253596;28;20039;-75
2023/01/22 06:12:14;;;;;;;58.00;20.88;;;;;;;-1.46;100.00;103216.41;5254862;28;20062;-75
2023/01/22 06:14:45;;;;;;;65.32;23.10;;;;;;;-1.41;100.00;103219.81;5257574;28;20048;-75
2023/01/22 06:17:16;;;;;;;54.13;20.60;;;;;;;-1.38;100.00;103226.81;5260907;28;20528;-74
2023/01/22 06:19:46;;;;;;;64.57;22.10;;;;;;;-1.37;100.00;103215.38;5261506;28;20036;-75
2023/01/22 06:22:18;;;;;;;58.55;21.45;;;;;;;-1.32;100.00;103213.50;5257161;28;20032;-74
2023/01/22 06:24:48;;;;;;;57.50;21.42;;;;;;;-1.34;100.00;103213.56;5251741;28;20089;-74
2023/01/22 06:27:18;;;;;;;53.25;20.77;;;;;;;-1.34;100.00;103224.09;5257086;28;20024;-75
2023/01/22 06:29:49;;;;;;;56.97;19.80;;;;;;;-1.33;100.00;103224.94;5254567;28;20032;-75
2023/01/22 06:32:19;;;;;;;59.15;21.92;;;;;;;-1.33;100.00;103222.31;5256174;28;20052;-75
2023/01/22 06:34:50;;;;;;;55.40;20.73;;;;;;;-1.35;100.00;103219.72;5246326;28;20039;-75
2023/01/22 06:37:21;;;;;;;53.33;21.17;;;;;;;-1.37;100.00;103216.25;5246122;28;20027;-75
2023/01/22 06:39:52;;;;;;;49.20;19.63;;;;;;;-1.38;100.00;103222.41;5253875;28;20024;-75
2023/01/22 06:42:22;;;;;;;52.78;19.58;;;;;;;-1.41;100.00;103209.28;5267439;28;20054;-75
2023/01/22 06:44:53;;;;;;;48.55;19.35;;;;;;;-1.42;100.00;103212.84;5247817;28;20216;-75
2023/01/22 06:47:23;;;;;;;56.55;20.00;;;;;;;-1.44;100.00;103213.78;5247163;28;20039;-75
2023/01/22 06:49:54;;;;;;;54.28;20.33;;;;;;;-1.44;100.00;103219.91;5247460;28;20116;-74
2023/01/22 06:52:24;;;;;;;52.17;20.60;;;;;;;-1.41;100.00;103221.59;5246217;28;20021;-75
2023/01/22 06:54:54;;;;;;;51.08;20.25;;;;;;;-1.41;100.00;103216.31;5257350;28;20450;-75
2023/01/22 06:57:25;;;;;;;47.47;18.63;;;;;;;-1.38;100.00;103227.69;5253899;28;20058;-74
2023/01/22 06:59:55;;;;;;;51.60;19.08;;;;;;;-1.36;100.00;103227.63;5266638;28;20480;-75
2023/01/22 07:02:26;;;;;;;47.75;18.58;;;;;;;-1.36;100.00;103217.09;5248235;28;20100;-75
2023/01/22 07:04:57;;;;;;;47.80;18.35;;;;;;;-1.35;100.00;103232.03;5247195;28;20052;-75
2023/01/22 07:07:27;;;;;;;46.13;18.00;;;;;;;-1.32;100.00;103238.06;5257937;28;20053;-75
2023/01/22 07:09:58;;;;;;;47.25;16.80;;;;;;;-1.27;100.00;103239.75;5254388;28;20036;-75
2023/01/22 07:12:28;;;;;;;43.83;17.85;;;;;;;-1.28;100.00;103241.53;5247198;28;20025;-75
2023/01/22 07:14:59;;;;;;;46.38;17.77;;;;;;;-1.26;100.00;103238.84;5251450;28;20020;-74
2023/01/22 07:17:29;;;;;;;43.03;17.00;;;;;;;-1.24;100.00;103248.47;5257820;28;20138;-75
2023/01/22 07:19:59;;;;;;;44.25;18.33;;;;;;;-1.23;100.00;103244.94;5247367;28;20431;-75
2023/01/22 07:22:31;;;;;;;41.80;16.80;;;;;;;-1.21;100.00;103252.78;5258140;28;20103;-75
2023/01/22 07:25:02;;;;;;;50.90;18.75;;;;;;;-1.18;100.00;103250.09;5248821;28;20024;-75
2023/01/22 07:27:33;;;;;;;42.15;17.10;;;;;;;-1.22;100.00;103249.28;5246565;28;20523;-75
2023/01/22 07:30:05;;;;;;;45.15;17.25;;;;;;;-1.21;100.00;103252.78;5246620;28;20117;-75
2023/01/22 07:32:35;;;;;;;49.65;17.35;;;;;;;-1.22;100.00;103246.66;5246688;28;20032;-75
2023/01/22 07:35:06;;;;;;;43.75;18.88;;;;;;;-1.23;100.00;103255.47;5247192;28;20027;-75
2023/01/22 07:37:37;;;;;;;42.97;17.95;;;;;;;-1.21;100.00;103250.16;5246347;28;20476;-74
2023/01/22 07:40:08;;;;;;;36.33;16.25;;;;;;;-1.20;100.00;103258.06;5246797;28;20093;-75
2023/01/22 07:42:38;;;;;;;39.30;16.75;;;;;;;-1.16;100.00;103253.56;5245124;28;20039;-75
2023/01/22 07:45:09;;;;;;;45.83;17.67;;;;;;;-1.16;100.00;103254.44;5246988;28;20020;-75
2023/01/22 07:47:39;;;;;;;39.92;16.85;;;;;;;-1.16;100.00;103250.94;5246091;28;20515;-75
2023/01/22 07:50:10;;;;;;;42.50;16.88;;;;;;;-1.17;100.00;103249.19;5258111;28;20044;-75
2023/01/22 07:52:40;;;;;;;45.78;16.95;;;;;;;-1.16;100.00;103251.78;5253644;28;20020;-74
2023/01/22 07:55:11;;;;;;;42.08;16.90;;;;;;;-1.14;100.00;103249.16;5252862;28;20079;-74
2023/01/22 07:57:41;;;;;;;42.38;16.73;;;;;;;-1.10;100.00;103248.19;5250251;28;20016;-74
2023/01/22 08:00:14;;;;;;;40.53;16.70;;;;;;;-1.14;100.00;103251.78;5251809;28;20039;-75
2023/01/22 08:02:45;;;;;;;45.50;17.10;;;;;;;-1.12;100.00;103257.88;5256205;28;20028;-75
2023/01/22 08:05:15;;;;;;;48.45;17.75;;;;;;;-1.10;100.00;103250.81;5252401;28;20100;-75
2023/01/22 08:07:45;;;;;;;42.00;16.75;;;;;;;-1.10;100.00;103245.56;5246502;28;20074;-75
2023/01/22 08:10:16;;;;;;;47.10;17.90;;;;;;;-1.08;100.00;103249.88;5245190;28;20020;-75
2023/01/22 08:12:47;;;;;;;39.25;17.02;;;;;;;-1.05;100.00;103256.88;5246422;28;20103;-75
2023/01/22 08:15:18;;;;;;;43.20;17.70;;;;;;;-1.05;100.00;103268.28;5253606;28;20020;-75
2023/01/22 08:17:49;;;;;;;45.15;16.98;;;;;;;-1.03;100.00;103260.31;5253117;28;20024;-75
2023/01/22 08:20:20;;;;;;;39.88;16.92;;;;;;;-1.03;100.00;103275.25;5245810;28;20047;-74
2023/01/22 08:22:57;;;;;;;45.38;17.73;;;;;;;-1.01;100.00;103276.94;5245792;28;20021;-74
2023/01/22 08:25:28;;;;;;;49.45;17.48;;;;;;;-1.00;100.00;103275.19;5253629;28;20161;-74
2023/01/22 08:28:03;;;;;;;48.38;16.85;;;;;;;-0.98;100.00;103281.31;5249740;28;20021;-75
2023/01/22 08:30:35;;;;;;;45.05;17.90;;;;;;;-0.95;100.00;103291.78;5245290;28;20032;-75
2023/01/22 08:33:05;;;;;;;44.53;16.95;;;;;;;-0.95;100.00;103281.25;5245610;28;20016;-75
2023/01/22 08:35:39;;;;;;;40.15;18.15;;;;;;;-0.87;100.00;103276.66;5245576;28;20396;-75
2023/01/22 08:38:09;;;;;;;42.35;16.60;;;;;;;-0.89;100.00;103274.06;5251629;28;20395;-75
2023/01/22 08:40:39;;;;;;;39.53;16.77;;;;;;;-0.87;100.00;103274.88;5251924;28;20059;-74
2023/01/22 08:43:10;;;;;;;42.53;15.93;;;;;;;-0.81;100.00;103274.75;5243881;28;20035;-74
2023/01/22 08:45:40;;;;;;;42.75;17.23;;;;;;;-0.79;100.00;103285.28;5245442;28;20473;-75
2023/01/22 08:48:11;;;;;;;43.13;16.67;;;;;;;-0.75;100.00;103272.88;5245041;28;20512;-75
2023/01/22 08:50:41;;;;;;;36.65;16.23;;;;;;;-0.74;100.00;103277.28;5258499;28;20084;-74
2023/01/22 08:53:12;;;;;;;42.35;17.00;;;;;;;-0.73;100.00;103281.66;5245469;28;20116;-75
2023/01/22 08:55:47;;;;;;;38.75;16.98;;;;;;;-0.70;100.00;103285.09;5243248;28;20021;-74
2023/01/22 08:58:20;;;;;;;40.75;16.88;;;;;;;-0.65;100.00;103285.84;5255606;28;20031;-74
2023/01/22 09:00:51;;;;;;;39.40;16.80;;;;;;;-0.66;100.00;103276.19;5258471;28;20035;-74
2023/01/22 09:03:22;;;;;;;35.70;15.57;;;;;;;-0.63;100.00;103281.41;5245016;28;20103;-74
2023/01/22 09:05:52;;;;;;;38.42;15.38;;;;;;;-0.64;100.00;103284.09;5245054;28;20025;-74
2023/01/22 09:08:23;;;;;;;37.55;15.50;;;;;;;-0.65;100.00;103285.84;5244449;28;20489;-75
2023/01/22 09:10:53;;;;;;;37.25;15.18;;;;;;;-0.64;100.00;103287.56;5244968;28;20036;-75
2023/01/22 09:13:24;;;;;;;39.72;17.13;;;;;;;-0.63;100.00;103299.00;5244811;28;20111;-75
2023/01/22 09:15:55;;;;;;;40.30;15.43;;;;;;;-0.60;100.00;103293.66;5257452;28;20035;-75
2023/01/22 09:18:26;;;;;;;36.42;15.82;;;;;;;-0.60;100.00;103293.66;5245555;28;20397;-75
2023/01/22 09:20:58;;;;;;;40.22;17.10;;;;;;;-0.59;100.00;103298.03;5244898;28;20023;-75
2023/01/22 09:23:29;;;;;;;43.13;16.33;;;;;;;-0.59;100.00;103300.66;5244590;28;20029;-75
2023/01/22 09:26:00;;;;;;;41.42;17.10;;;;;;;-0.56;100.00;103290.03;5245180;28;20085;-74
2023/01/22 09:28:30;;;;;;;44.45;16.70;;;;;;;-0.46;100.00;103293.31;5244196;28;20103;-75
2023/01/22 09:31:01;;;;;;;39.63;16.88;;;;;;;-0.51;100.00;103309.25;5242689;28;20036;-75
2023/01/22 09:33:31;;;;;;;41.13;16.02;;;;;;;-0.51;100.00;103306.63;5244764;28;20020;-75
2023/01/22 09:36:13;;;;;;;39.28;16.25;;;;;;;-0.49;100.00;103309.22;5244517;28;20032;-75
2023/01/22 09:38:43;;;;;;;40.80;17.70;;;;;;;-0.45;100.00;103309.13;5244311;28;20050;-75
2023/01/22 09:41:33;;;;;;;44.15;16.45;;;;;;;-0.48;100.00;103309.19;5244127;28;20103;-75
2023/01/22 09:44:31;;;;;;;40.00;16.02;;;;;;;-0.46;100.00;103301.22;5243217;28;20392;-75
2023/01/22 09:47:11;;;;;;;36.65;15.68;;;;;;;-0.41;100.00;103297.59;5247308;28;20510;-75
2023/01/22 09:50:18;;;;;;;45.08;16.27;;;;;;;-0.38;100.00;103297.53;5248128;28;20046;-75
2023/01/22 09:52:52;;;;;;;41.45;16.92;;;;;;;-0.39;100.00;103297.56;5229685;28;20134;-75
2023/01/22 09:55:27;;;;;;;38.95;16.92;;;;;;;-0.42;100.00;103302.91;5248305;28;20029;-75
2023/01/22 09:58:04;;;;;;;40.78;16.33;;;;;;;-0.37;100.00;103295.75;5255688;28;20102;-75
2023/01/22 10:00:43;;;;;;;37.63;16.08;;;;;;;-0.41;100.00;103300.22;5255291;28;20039;-75
2023/01/22 10:03:37;;;;;;;38.80;15.70;;;;;;;-0.39;100.00;103308.13;5256625;28;20542;-75
2023/01/22 10:06:20;;;;;;;38.63;15.80;;;;;;;-0.38;100.00;103308.06;5248228;28;20095;-75
2023/01/22 10:09:09;;;;;;;42.17;17.02;;;;;;;-0.37;100.00;103319.50;5247727;28;20099;-75
2023/01/22 10:11:41;;;;;;;39.83;16.70;;;;;;;-0.35;100.00;103318.56;5261486;28;20039;-74
2023/01/22 10:14:16;;;;;;;39.33;17.42;;;;;;;-0.34;100.00;103320.28;5248083;28;20109;-75
2023/01/22 10:16:47;;;;;;;46.00;20.63;;;;;;;-0.29;100.00;103313.16;5263642;28;20500;-75
2023/01/22 10:19:26;;;;;;;47.70;19.65;;;;;;;-0.28;100.00;103316.66;5248036;28;20241;-75
2023/01/22 10:22:09;;;;;;;44.10;18.23;;;;;;;-0.31;100.00;103319.34;5247765;28;20477;-75
2023/01/22 10:24:39;;;;;;;46.22;19.45;;;;;;;-0.33;100.00;103323.78;5247896;28;20544;-75
2023/01/22 10:27:21;;;;;;;45.80;18.77;;;;;;;-0.35;100.00;103312.41;5247165;28;20108;-75
2023/01/22 10:29:58;;;;;;;45.60;18.88;;;;;;;-0.34;100.00;103311.53;5252089;28;20508;-75
2023/01/22 10:32:31;;;;;;;45.95;19.17;;;;;;;-0.27;100.00;103313.97;5254663;28;20024;-75
2023/01/22 10:35:06;;;;;;;45.72;17.98;;;;;;;-0.24;100.00;103310.41;5247527;28;20048;-75
2023/01/22 10:37:45;;;;;;;46.22;17.33;;;;;;;-0.21;100.00;103309.44;5246810;28;20028;-75
2023/01/22 10:40:25;;;;;;;44.42;17.17;;;;;;;-0.27;100.00;103310.47;5247525;28;20021;-75
2023/01/22 10:43:11;;;;;;;47.28;18.38;;;;;;;-0.29;100.00;103297.31;5247271;28;20031;-75
2023/01/22 10:45:58;;;;;;;37.42;17.05;;;;;;;-0.29;100.00;103305.22;5247476;28;20100;-75
2023/01/22 10:48:28;;;;;;;43.70;15.32;;;;;;;-0.22;100.00;103315.63;5247050;28;20051;-75
2023/01/22 10:51:10;;;;;;;40.33;16.58;;;;;;;-0.26;100.00;103310.41;5247015;28;20048;-75
2023/01/22 10:53:51;;;;;;;39.45;16.45;;;;;;;-0.27;100.00;103318.38;5247075;28;20068;-75
2023/01/22 10:56:32;;;;;;;50.13;22.10;;;;;;;-0.22;100.00;103313.84;5245483;28;20024;-75
2023/01/22 10:59:18;;;;;;;49.17;21.35;;;;;;;-0.18;100.00;103318.16;5263884;28;20047;-75
2023/01/22 11:01:55;;;;;;;44.30;17.42;;;;;;;-0.22;100.00;103308.56;5266122;28;20051;-75
2023/01/22 11:04:29;;;;;;;43.38;16.75;;;;;;;-0.19;100.00;103310.28;5247109;28;20040;-75
2023/01/22 11:07:05;;;;;;;39.15;16.08;;;;;;;-0.18;100.00;103306.75;5246092;28;20046;-75
2023/01/22 11:10:06;;;;;;;40.03;17.52;;;;;;;-0.15;100.00;103301.38;5245736;28;20020;-75
2023/01/22 11:12:44;;;;;;;40.83;15.68;;;;;;;-0.15;100.00;103301.38;5245364;28;20591;-75
2023/01/22 11:15:21;;;;;;;32.90;14.65;;;;;;;-0.18;100.00;103296.19;5256356;28;20024;-75
2023/01/22 11:17:55;;;;;;;35.85;15.20;;;;;;;-0.19;100.00;103291.81;5254926;28;20024;-75
2023/01/22 11:20:46;;;;;;;36.78;15.70;;;;;;;-0.20;100.00;103290.97;5246470;28;20732;-75
2023/01/22 11:23:43;;;;;;;36.65;14.20;;;;;;;-0.17;100.00;103293.50;5246406;28;20035;-75
2023/01/22 11:26:19;;;;;;;34.45;14.93;;;;;;;-0.14;100.00;103293.44;5218805;28;20120;-75
2023/01/22 11:29:20;;;;;;;35.22;15.27;;;;;;;-0.10;100.00;103291.56;5246277;28;20104;-75
2023/01/22 11:32:15;;;;;;;39.03;16.42;;;;;;;-0.11;100.00;103298.63;5245898;28;20043;-75